Weather at Debrzno (Słupia) Highway Strip

Public forecast

Using degrees Celsius for public forecast. Weather courtesy of forecast.io.

Closest aviation weather report (METAR) to Debrzno (Słupia) Highway Strip

Closest report is Bydgoszcz Ignacy Jan Paderewski Airport, 38.3 nm (71.0 km) SE. Retrieved 2021/06/25 04:30 UTC (16 minutes ago):

EPBY 250430Z 30004KT 9999 FEW009 15/13 Q1015

Closest aviation forecast (TAF) to Debrzno (Słupia) Highway Strip

Closest forecast is Bydgoszcz Ignacy Jan Paderewski Airport, 38.3 nm (71.0 km) SE. Retrieved 2021-06-25 00:00 UTC (5 hours ago):

TAF EPBY 242330Z 2500/2524 30010KT 9999 BKN007 PROB40 TEMPO 2500/2505 BKN012 BECMG 2505/2508 SCT030 TEMPO 2511/2521 4000 SHRA BKN020CB